Time;durP1;ratioP1;P1;durP2;ratioP2;P2;SDS_P1;SDS_P2;PMS_P1;PMS_P2;Temp;Humidity;BMP_temperature;BMP_pressure;BME280_temperature;BME280_humidity;BME280_pressure;Samples;Min_cycle;Max_cycle;Signal;HPM_P1;HPM_P2
2022/03/10 00:01:41;;;;;;;33.80;30.70;;;;;;;0.94;63.17;98845.02;105515;1282;25531;-79
2022/03/10 00:04:09;;;;;;;34.10;31.10;;;;;;;0.90;63.34;98846.17;105775;1281;24228;-79
2022/03/10 00:06:38;;;;;;;34.20;31.30;;;;;;;0.88;63.35;98847.13;105607;1280;22563;-78
2022/03/10 00:09:06;;;;;;;39.00;35.60;;;;;;;0.85;63.55;98850.79;105691;1279;24240;-78
2022/03/10 00:11:34;;;;;;;34.20;31.10;;;;;;;0.81;63.37;98848.52;105928;1279;22554;-79
2022/03/10 00:14:14;;;;;;;33.60;30.60;;;;;;;0.80;63.41;98855.37;105782;1279;22550;-80
2022/03/10 00:16:45;;;;;;;35.20;32.20;;;;;;;0.80;63.39;98861.88;105519;1280;25451;-79
2022/03/10 00:19:14;;;;;;;33.00;30.10;;;;;;;0.81;63.56;98866.60;105731;1279;23375;-81
2022/03/10 00:21:44;;;;;;;34.80;31.80;;;;;;;0.79;63.46;98867.75;105802;1279;22694;-79
2022/03/10 00:24:16;;;;;;;33.10;30.30;;;;;;;0.78;63.56;98868.78;105822;1279;22730;-79
2022/03/10 00:26:48;;;;;;;32.40;29.70;;;;;;;0.75;63.62;98870.41;105355;1282;22706;-81
2022/03/10 00:29:16;;;;;;;33.50;30.60;;;;;;;0.72;63.63;98874.59;105618;1281;25529;-79
2022/03/10 00:31:46;;;;;;;36.60;33.60;;;;;;;0.68;63.57;98878.45;105646;1281;22548;-80
2022/03/10 00:34:14;;;;;;;37.00;33.80;;;;;;;0.63;63.68;98878.14;105839;1279;23329;-80
2022/03/10 00:36:42;;;;;;;33.50;30.50;;;;;;;0.60;63.71;98885.65;105846;1279;22665;-80
2022/03/10 00:39:10;;;;;;;32.70;29.80;;;;;;;0.57;63.70;98892.00;105752;1281;22661;-80
2022/03/10 00:41:38;;;;;;;31.90;29.00;;;;;;;0.53;63.59;98894.95;105526;1282;22764;-79
2022/03/10 00:44:07;;;;;;;31.20;28.50;;;;;;;0.53;63.85;98896.67;105621;1280;22693;-80
2022/03/10 00:46:35;;;;;;;31.10;28.40;;;;;;;0.51;63.67;98903.62;105421;1279;22730;-80
2022/03/10 00:49:03;;;;;;;29.40;26.90;;;;;;;0.48;63.83;98897.81;105704;1279;22708;-80
2022/03/10 00:51:32;;;;;;;28.00;25.50;;;;;;;0.43;63.86;98898.52;105806;1280;22551;-78
2022/03/10 00:54:00;;;;;;;28.30;25.70;;;;;;;0.41;63.92;98905.92;105599;1279;22566;-81
2022/03/10 00:56:28;;;;;;;29.50;26.90;;;;;;;0.37;63.92;98909.48;105677;1280;24373;-81
2022/03/10 00:58:58;;;;;;;31.30;28.60;;;;;;;0.33;63.84;98907.58;105723;1280;24260;-80
2022/03/10 01:01:26;;;;;;;30.70;28.00;;;;;;;0.29;63.76;98910.27;105577;1280;24391;-81
2022/03/10 01:03:54;;;;;;;29.50;26.80;;;;;;;0.24;63.79;98908.61;105902;1280;25376;-81
2022/03/10 01:06:22;;;;;;;28.80;26.30;;;;;;;0.19;63.89;98909.39;105903;1280;22556;-80
2022/03/10 01:08:52;;;;;;;28.00;25.50;;;;;;;0.14;63.69;98908.46;105630;1280;24223;-81
2022/03/10 01:11:21;;;;;;;28.60;26.10;;;;;;;0.09;63.88;98909.98;105349;1281;22556;-80
2022/03/10 01:13:49;;;;;;;28.70;26.30;;;;;;;0.08;63.88;98909.41;105810;1280;22546;-82
2022/03/10 01:16:18;;;;;;;33.10;30.30;;;;;;;0.12;63.80;98908.55;105687;1279;22935;-81
2022/03/10 01:18:48;;;;;;;28.90;26.40;;;;;;;0.16;63.93;98907.23;105940;1280;22663;-81
2022/03/10 01:21:16;;;;;;;27.80;25.30;;;;;;;0.17;63.91;98909.07;105204;1284;25631;-81
2022/03/10 01:23:47;;;;;;;29.30;26.80;;;;;;;0.16;63.98;98912.66;105038;1280;981346;-81
2022/03/10 01:26:16;;;;;;;29.40;26.80;;;;;;;0.17;64.04;98912.98;105838;1280;22558;-82
2022/03/10 01:28:46;;;;;;;30.40;27.90;;;;;;;0.14;64.12;98911.40;105852;1280;22556;-82
2022/03/10 01:31:14;;;;;;;33.30;30.20;;;;;;;0.12;64.09;98911.56;105775;1280;22562;-81
2022/03/10 01:33:42;;;;;;;30.70;28.10;;;;;;;0.08;64.07;98916.41;105680;1280;22536;-82
2022/03/10 01:36:13;;;;;;;29.20;26.70;;;;;;;0.04;64.06;98911.89;105939;1280;25408;-81
2022/03/10 01:38:42;;;;;;;30.40;27.60;;;;;;;-0.02;64.17;98918.10;105952;1280;24250;-81
2022/03/10 01:41:10;;;;;;;34.60;31.50;;;;;;;-0.04;64.25;98918.42;105924;1280;22554;-81
2022/03/10 01:44:03;;;;;;;38.30;35.00;;;;;;;-0.06;64.35;98918.59;105779;1280;22659;-80
2022/03/10 01:46:31;;;;;;;37.30;34.00;;;;;;;-0.09;64.29;98917.13;105722;1280;24268;-77
2022/03/10 01:49:00;;;;;;;30.30;27.60;;;;;;;-0.08;64.34;98922.80;105758;1280;22794;-78
2022/03/10 01:51:32;;;;;;;32.80;29.90;;;;;;;-0.05;64.38;98919.04;105701;1280;24416;-75
2022/03/10 01:54:00;;;;;;;31.70;29.00;;;;;;;-0.02;64.31;98923.81;105470;1280;22681;-76
2022/03/10 01:56:32;;;;;;;30.70;28.00;;;;;;;-0.01;64.39;98923.76;105653;1280;24267;-77
2022/03/10 01:59:03;;;;;;;33.50;30.50;;;;;;;-0.01;64.51;98924.49;105712;1280;22701;-75
2022/03/10 02:01:31;;;;;;;36.90;33.60;;;;;;;-0.04;64.48;98924.22;105867;1279;22621;-75
2022/03/10 02:04:00;;;;;;;31.30;28.60;;;;;;;-0.07;64.72;98927.89;105685;1280;22612;-76
2022/03/10 02:06:28;;;;;;;30.00;27.40;;;;;;;-0.14;64.94;98927.36;105730;1280;22709;-76
2022/03/10 02:11:43;;;;;;;30.60;27.90;;;;;;;-0.28;64.96;98934.16;105730;1280;22554;-76
2022/03/10 02:19:57;;;;;;;19.50;17.80;;;;;;;-0.44;65.17;98943.44;105855;1279;23404;-75
2022/03/10 02:22:26;;;;;;;20.30;18.70;;;;;;;-0.48;65.24;98947.14;106151;1279;22695;-76
2022/03/10 02:24:54;;;;;;;19.00;17.40;;;;;;;-0.54;65.44;98949.58;105631;1279;22709;-77
2022/03/10 02:27:27;;;;;;;17.40;15.90;;;;;;;-0.60;65.25;98953.35;105697;1279;25406;-76
2022/03/10 02:30:00;;;;;;;19.30;17.60;;;;;;;-0.64;65.39;98954.27;105623;1279;22636;-76
2022/03/10 02:32:28;;;;;;;23.40;21.30;;;;;;;-0.73;65.32;98958.65;105198;1279;22559;-76
2022/03/10 02:34:56;;;;;;;18.80;17.10;;;;;;;-0.76;65.50;98959.41;105611;1279;22670;-76
2022/03/10 02:37:24;;;;;;;20.60;18.70;;;;;;;-0.78;65.31;98964.21;105625;1279;24366;-76
2022/03/10 02:39:51;;;;;;;19.90;18.20;;;;;;;-0.84;65.46;98964.04;105209;1280;24433;-76
2022/03/10 02:42:20;;;;;;;18.20;16.60;;;;;;;-0.88;65.20;98970.73;105542;1279;22549;-76
2022/03/10 02:44:49;;;;;;;20.00;18.20;;;;;;;-0.87;65.28;98977.34;105681;1279;23944;-75
2022/03/10 02:47:18;;;;;;;20.00;18.20;;;;;;;-0.84;65.41;98978.52;105464;1280;22612;-75
2022/03/10 02:49:46;;;;;;;20.80;18.90;;;;;;;-0.82;65.42;98982.85;105649;1279;25423;-76
2022/03/10 02:52:14;;;;;;;22.30;20.10;;;;;;;-0.81;65.35;98983.55;105622;1279;25380;-76
2022/03/10 02:54:44;;;;;;;20.60;18.70;;;;;;;-0.83;65.68;98982.92;105736;1279;22550;-76
2022/03/10 02:57:13;;;;;;;21.30;19.50;;;;;;;-0.84;65.67;98984.71;105623;1279;22779;-76
2022/03/10 02:59:42;;;;;;;20.00;18.30;;;;;;;-0.87;65.68;98991.09;105672;1279;25411;-77
2022/03/10 03:02:10;;;;;;;23.70;21.60;;;;;;;-0.91;65.92;98993.39;105848;1279;24243;-75
2022/03/10 03:04:41;;;;;;;29.30;26.60;;;;;;;-0.95;65.77;98991.02;105629;1279;22560;-76
2022/03/10 03:07:09;;;;;;;22.60;20.70;;;;;;;-0.99;65.88;98996.41;105591;1279;24120;-75
2022/03/10 03:09:37;;;;;;;19.40;17.60;;;;;;;-0.98;65.83;98997.96;105425;1280;22560;-74
2022/03/10 03:12:05;;;;;;;23.20;21.20;;;;;;;-0.95;65.74;98998.30;105632;1279;24944;-75
2022/03/10 03:14:33;;;;;;;21.30;19.60;;;;;;;-0.91;65.77;99002.55;105387;1280;22767;-77
2022/03/10 03:17:01;;;;;;;20.90;19.10;;;;;;;-0.91;65.94;99002.52;105447;1280;22701;-76
2022/03/10 03:19:29;;;;;;;22.90;20.90;;;;;;;-0.92;65.97;99004.19;105607;1279;23147;-76
2022/03/10 03:21:57;;;;;;;23.10;21.20;;;;;;;-0.93;65.94;99009.27;105646;1279;25432;-75
2022/03/10 03:24:25;;;;;;;22.90;21.00;;;;;;;-0.94;66.00;99012.40;105600;1279;25383;-75
2022/03/10 03:26:53;;;;;;;23.00;21.00;;;;;;;-0.95;65.96;99017.80;105539;1279;22566;-76
2022/03/10 03:29:21;;;;;;;23.40;21.30;;;;;;;-0.95;66.06;99021.38;105625;1280;22596;-75
2022/03/10 03:31:49;;;;;;;22.20;20.40;;;;;;;-0.96;66.08;99021.42;105477;1279;22554;-76
2022/03/10 03:34:17;;;;;;;25.60;23.40;;;;;;;-0.97;65.99;99026.67;105711;1279;24289;-77
2022/03/10 03:36:47;;;;;;;13.60;12.40;;;;;;;-0.96;65.96;99029.20;105332;1280;23692;-77
2022/03/10 03:39:15;;;;;;;15.90;14.50;;;;;;;-0.97;65.98;99033.71;105433;1280;22707;-76
2022/03/10 03:41:42;;;;;;;12.20;11.10;;;;;;;-0.97;65.85;99037.73;105843;1279;22821;-77
2022/03/10 03:44:12;;;;;;;12.90;11.70;;;;;;;-1.06;65.63;99033.83;105616;1280;22641;-75
2022/03/10 03:46:41;;;;;;;11.50;10.50;;;;;;;-1.12;65.66;99046.27;105618;1279;22544;-76
2022/03/10 03:49:11;;;;;;;13.80;12.60;;;;;;;-1.20;65.38;99048.31;105419;1281;22762;-76
2022/03/10 03:51:38;;;;;;;13.10;12.00;;;;;;;-1.27;65.61;99053.31;105798;1279;25384;-77
2022/03/10 03:54:07;;;;;;;13.00;11.80;;;;;;;-1.33;65.47;99063.80;105624;1279;24034;-76
2022/03/10 03:56:37;;;;;;;15.00;13.60;;;;;;;-1.38;65.47;99065.89;105838;1279;22562;-75
2022/03/10 03:59:05;;;;;;;15.50;14.00;;;;;;;-1.43;65.38;99073.22;105655;1279;22871;-76
2022/03/10 04:01:33;;;;;;;15.80;14.40;;;;;;;-1.47;65.46;99069.86;105630;1279;24379;-76
2022/03/10 04:04:02;;;;;;;16.50;15.00;;;;;;;-1.50;65.45;99076.50;105422;1279;25366;-76
2022/03/10 04:06:29;;;;;;;16.10;14.60;;;;;;;-1.54;65.45;99073.63;105406;1279;22631;-76
2022/03/10 04:08:57;;;;;;;14.10;12.80;;;;;;;-1.59;65.33;99076.68;105629;1279;25394;-75
2022/03/10 04:11:25;;;;;;;16.80;15.40;;;;;;;-1.65;65.35;99084.34;105602;1279;22716;-75
2022/03/10 04:13:53;;;;;;;21.00;19.10;;;;;;;-1.72;65.33;99090.14;105624;1279;26731;-76
2022/03/10 04:16:21;;;;;;;18.30;16.70;;;;;;;-1.76;65.37;99090.28;105632;1279;24419;-77
2022/03/10 04:18:49;;;;;;;15.60;14.10;;;;;;;-1.77;65.20;99093.52;105930;1279;25365;-77
2022/03/10 04:21:18;;;;;;;17.10;15.60;;;;;;;-1.78;65.36;99092.33;105874;1279;22706;-77
2022/03/10 04:23:46;;;;;;;18.60;16.80;;;;;;;-1.81;65.45;99100.42;105853;1279;22711;-77
2022/03/10 04:26:13;;;;;;;16.70;15.30;;;;;;;-1.85;65.45;99102.31;105851;1279;22877;-79
2022/03/10 04:28:41;;;;;;;24.30;22.10;;;;;;;-1.90;65.46;99108.68;105859;1279;22717;-79
2022/03/10 04:31:09;;;;;;;26.00;23.50;;;;;;;-1.95;65.45;99117.61;105437;1279;22532;-78
2022/03/10 04:33:37;;;;;;;22.30;20.20;;;;;;;-2.02;65.48;99119.54;105875;1279;25583;-76
2022/03/10 04:36:05;;;;;;;16.90;15.30;;;;;;;-2.09;65.48;99119.45;105625;1279;25402;-77
2022/03/10 04:38:33;;;;;;;17.80;16.20;;;;;;;-2.18;65.79;99125.92;105833;1279;23438;-77
2022/03/10 04:41:01;;;;;;;19.80;18.00;;;;;;;-2.29;65.71;99127.23;105567;1279;22970;-78
2022/03/10 04:43:29;;;;;;;19.40;17.60;;;;;;;-2.38;65.90;99125.27;105532;1279;22702;-77
2022/03/10 04:45:59;;;;;;;18.60;17.00;;;;;;;-2.42;66.06;99132.69;105501;1279;24457;-76
2022/03/10 04:48:27;;;;;;;19.80;18.10;;;;;;;-2.43;66.05;99132.48;105614;1279;24549;-76
2022/03/10 04:50:55;;;;;;;17.50;16.00;;;;;;;-2.44;65.95;99139.90;105845;1279;25371;-76
2022/03/10 04:53:23;;;;;;;18.50;16.80;;;;;;;-2.46;66.10;99140.11;105611;1279;22697;-75
2022/03/10 04:55:51;;;;;;;20.20;18.40;;;;;;;-2.48;66.22;99141.34;105576;1279;22694;-76
2022/03/10 04:58:19;;;;;;;21.00;19.20;;;;;;;-2.53;66.28;99142.55;105610;1279;25386;-76
2022/03/10 05:00:46;;;;;;;23.30;21.10;;;;;;;-2.59;66.36;99144.70;105618;1279;25433;-76
2022/03/10 05:03:15;;;;;;;25.70;23.30;;;;;;;-2.66;66.61;99152.77;105585;1280;24363;-76
2022/03/10 05:05:43;;;;;;;23.20;21.10;;;;;;;-2.72;66.59;99155.11;105594;1279;25458;-76
2022/03/10 05:08:11;;;;;;;21.20;19.10;;;;;;;-2.79;67.29;99154.79;105588;1279;25387;-75
2022/03/10 05:10:39;;;;;;;28.90;25.10;;;;;;;-2.83;66.96;99157.98;105539;1279;22562;-76
2022/03/10 05:13:07;;;;;;;20.60;18.70;;;;;;;-2.84;66.96;99160.88;105480;1279;22901;-77
2022/03/10 05:15:35;;;;;;;21.40;19.50;;;;;;;-2.84;66.95;99161.53;105850;1279;25707;-76
2022/03/10 05:18:05;;;;;;;21.10;19.20;;;;;;;-2.82;66.92;99164.55;105601;1279;22705;-76
2022/03/10 05:20:36;;;;;;;21.70;19.00;;;;;;;-2.83;66.96;99164.66;105816;1279;22659;-75
2022/03/10 05:23:04;;;;;;;20.30;18.50;;;;;;;-2.85;66.82;99166.66;105631;1279;22588;-77
2022/03/10 05:25:38;;;;;;;22.60;20.70;;;;;;;-2.88;66.91;99171.58;105898;1279;24453;-76
2022/03/10 05:28:13;;;;;;;24.70;22.50;;;;;;;-2.91;66.93;99174.73;105603;1279;24468;-76
2022/03/10 05:30:42;;;;;;;23.30;21.40;;;;;;;-2.95;66.95;99184.64;105467;1282;23188;-76
2022/03/10 05:33:11;;;;;;;25.60;23.50;;;;;;;-2.98;66.95;99187.45;105485;1281;23082;-76
2022/03/10 05:35:40;;;;;;;26.40;24.10;;;;;;;-3.00;67.00;99192.77;105705;1279;22556;-76
2022/03/10 05:38:08;;;;;;;28.80;22.60;;;;;;;-3.01;67.04;99197.83;105610;1279;24663;-75
2022/03/10 05:40:36;;;;;;;23.20;21.20;;;;;;;-3.00;67.02;99202.97;105631;1279;24311;-77
2022/03/10 05:43:04;;;;;;;23.20;21.20;;;;;;;-2.95;67.00;99205.11;105616;1279;22714;-76
2022/03/10 05:45:32;;;;;;;24.20;22.10;;;;;;;-2.91;67.04;99201.27;105615;1279;25423;-76
2022/03/10 05:47:59;;;;;;;27.80;25.30;;;;;;;-2.89;67.03;99206.33;105802;1279;22899;-75
2022/03/10 05:50:27;;;;;;;23.90;21.80;;;;;;;-2.89;67.09;99205.63;105601;1279;22687;-76
2022/03/10 05:52:57;;;;;;;24.20;21.80;;;;;;;-2.88;67.09;99209.05;105767;1279;22731;-77
2022/03/10 05:55:26;;;;;;;25.70;23.30;;;;;;;-2.89;67.16;99208.63;105896;1279;25534;-77
2022/03/10 05:57:54;;;;;;;29.20;26.40;;;;;;;-2.89;67.10;99214.92;105857;1279;23016;-77
2022/03/10 06:00:23;;;;;;;21.80;19.80;;;;;;;-2.89;67.14;99216.55;105838;1279;25405;-76
2022/03/10 06:02:51;;;;;;;20.60;18.60;;;;;;;-2.94;67.07;99217.62;105560;1282;24433;-75
2022/03/10 06:05:19;;;;;;;22.20;20.20;;;;;;;-2.93;66.96;99227.66;105397;1280;22712;-77
2022/03/10 06:07:50;;;;;;;21.00;18.80;;;;;;;-2.92;66.99;99232.33;105763;1279;25373;-76
2022/03/10 06:10:17;;;;;;;22.00;19.70;;;;;;;-2.92;66.85;99235.45;105316;1279;22653;-78
2022/03/10 06:12:46;;;;;;;20.00;18.10;;;;;;;-2.90;66.84;99242.71;105552;1279;22573;-77
2022/03/10 06:15:14;;;;;;;26.90;21.70;;;;;;;-2.90;66.79;99250.35;105758;1279;24567;-76
2022/03/10 06:17:42;;;;;;;23.70;21.20;;;;;;;-2.89;66.77;99253.04;105451;1279;24744;-76
2022/03/10 06:20:11;;;;;;;23.80;21.50;;;;;;;-2.88;66.71;99254.19;105598;1279;25258;-76
2022/03/10 06:22:39;;;;;;;20.20;18.00;;;;;;;-2.86;66.61;99257.86;105426;1280;24247;-77
2022/03/10 06:25:09;;;;;;;22.90;20.70;;;;;;;-2.85;66.57;99261.67;105728;1279;22584;-77
2022/03/10 06:27:38;;;;;;;24.90;22.40;;;;;;;-2.82;66.71;99270.36;105780;1279;22555;-77
2022/03/10 06:30:06;;;;;;;24.00;21.10;;;;;;;-2.76;66.63;99271.98;105723;1279;22639;-76
2022/03/10 06:32:34;;;;;;;24.20;20.00;;;;;;;-2.67;66.60;99274.31;105611;1279;25337;-76
2022/03/10 06:35:02;;;;;;;25.00;22.60;;;;;;;-2.59;66.56;99273.64;105526;1279;22547;-76
2022/03/10 06:37:30;;;;;;;19.20;17.30;;;;;;;-2.51;66.52;99279.20;105721;1279;22560;-76
2022/03/10 06:39:58;;;;;;;19.50;17.60;;;;;;;-2.47;66.54;99284.27;105860;1279;25246;-75
2022/03/10 06:42:26;;;;;;;20.50;18.20;;;;;;;-2.50;66.38;99286.88;105813;1279;22738;-77
2022/03/10 06:44:53;;;;;;;19.80;17.90;;;;;;;-2.49;66.42;99289.49;105710;1279;25711;-78
2022/03/10 06:47:21;;;;;;;20.40;18.70;;;;;;;-2.45;66.52;99298.38;105670;1279;22840;-76
2022/03/10 06:49:49;;;;;;;22.90;20.90;;;;;;;-2.40;66.36;99300.15;105894;1279;22554;-76
2022/03/10 06:52:19;;;;;;;21.80;19.60;;;;;;;-2.39;66.26;99302.99;105575;1279;22694;-76
2022/03/10 06:54:47;;;;;;;25.30;20.60;;;;;;;-2.42;66.18;99302.60;105675;1279;25281;-77
2022/03/10 06:57:18;;;;;;;23.60;20.50;;;;;;;-2.41;66.26;99304.03;105825;1279;22531;-76
2022/03/10 06:59:45;;;;;;;23.00;20.90;;;;;;;-2.35;66.24;99307.81;105911;1279;22573;-77
2022/03/10 07:02:15;;;;;;;20.60;18.40;;;;;;;-2.31;66.12;99306.95;105973;1279;25377;-77
2022/03/10 07:04:43;;;;;;;23.00;20.60;;;;;;;-2.25;66.13;99310.52;105892;1279;22705;-75
2022/03/10 07:07:11;;;;;;;21.70;19.70;;;;;;;-2.19;66.19;99316.09;105676;1279;24511;-78
2022/03/10 07:09:41;;;;;;;23.90;20.40;;;;;;;-2.11;66.23;99317.06;105482;1279;24244;-76
2022/03/10 07:12:09;;;;;;;21.30;17.90;;;;;;;-2.04;65.94;99318.89;105595;1279;25225;-76
2022/03/10 07:14:38;;;;;;;18.80;15.30;;;;;;;-2.03;65.55;99326.90;105683;1279;24534;-76
2022/03/10 07:17:06;;;;;;;14.60;13.00;;;;;;;-2.02;65.11;99326.64;105445;1279;23319;-77
2022/03/10 07:19:34;;;;;;;14.70;13.00;;;;;;;-2.06;64.86;99325.09;105891;1279;22550;-76
2022/03/10 07:22:02;;;;;;;16.90;12.40;;;;;;;-2.09;64.54;99328.45;105636;1279;24472;-77
2022/03/10 07:24:31;;;;;;;16.50;12.50;;;;;;;-2.11;63.85;99333.71;105501;1279;25381;-77
2022/03/10 07:27:00;;;;;;;14.70;13.30;;;;;;;-2.17;63.37;99337.85;105869;1279;24394;-76
2022/03/10 07:29:28;;;;;;;14.70;13.30;;;;;;;-2.17;63.41;99333.91;105660;1279;22563;-77
2022/03/10 07:31:56;;;;;;;15.50;14.10;;;;;;;-2.18;63.09;99331.89;105821;1279;22549;-77
2022/03/10 07:34:25;;;;;;;15.60;14.20;;;;;;;-2.15;63.59;99342.83;105672;1279;24291;-77
2022/03/10 07:36:53;;;;;;;14.10;12.70;;;;;;;-2.10;63.49;99344.85;105660;1280;24442;-79
2022/03/10 07:39:22;;;;;;;15.70;14.20;;;;;;;-2.08;63.38;99349.64;105652;1278;22549;-78
2022/03/10 07:41:50;;;;;;;19.20;17.20;;;;;;;-2.05;62.82;99350.70;105822;1280;22560;-77
2022/03/10 07:44:18;;;;;;;15.10;13.30;;;;;;;-2.04;62.34;99353.56;105849;1280;22547;-77
2022/03/10 07:46:46;;;;;;;14.70;13.20;;;;;;;-2.05;62.20;99354.04;105613;1280;22752;-77
2022/03/10 07:49:14;;;;;;;13.30;11.90;;;;;;;-2.03;62.30;99356.79;105777;1280;22548;-78
2022/03/10 07:51:44;;;;;;;14.00;11.80;;;;;;;-2.00;61.67;99357.20;105792;1280;22547;-76
2022/03/10 07:54:12;;;;;;;13.20;12.00;;;;;;;-1.99;61.96;99360.02;105925;1280;22566;-77
2022/03/10 07:56:40;;;;;;;17.90;12.60;;;;;;;-1.94;61.97;99362.23;105721;1280;22563;-77
2022/03/10 07:59:08;;;;;;;14.30;13.00;;;;;;;-1.89;61.43;99361.16;105890;1280;22564;-76
2022/03/10 08:01:36;;;;;;;12.50;11.40;;;;;;;-1.88;61.46;99367.33;105700;1280;22549;-76
2022/03/10 08:04:08;;;;;;;13.10;11.80;;;;;;;-1.85;61.55;99371.92;105930;1280;24230;-76
2022/03/10 08:06:36;;;;;;;12.80;11.70;;;;;;;-1.81;61.54;99374.60;105704;1280;25326;-77
2022/03/10 08:09:07;;;;;;;13.60;12.30;;;;;;;-1.77;61.28;99370.64;105853;1280;22554;-77
2022/03/10 08:11:35;;;;;;;12.60;11.30;;;;;;;-1.73;60.94;99371.83;105765;1280;22753;-76
2022/03/10 08:14:04;;;;;;;16.70;15.20;;;;;;;-1.69;60.88;99375.83;105627;1280;24658;-76
2022/03/10 08:16:33;;;;;;;13.70;12.30;;;;;;;-1.63;60.37;99375.48;105808;1280;22534;-76
2022/03/10 08:19:01;;;;;;;13.30;11.10;;;;;;;-1.58;60.43;99374.74;105663;1280;25282;-76
2022/03/10 08:21:29;;;;;;;15.50;12.30;;;;;;;-1.55;58.61;99373.02;105293;1279;24488;-76
2022/03/10 08:23:58;;;;;;;12.60;11.30;;;;;;;-1.55;58.52;99376.69;105560;1279;22657;-75
2022/03/10 08:26:29;;;;;;;15.40;12.50;;;;;;;-1.53;58.52;99376.64;105946;1279;24316;-76
2022/03/10 08:29:01;;;;;;;11.70;10.40;;;;;;;-1.51;58.23;99370.73;105472;1280;24247;-76
2022/03/10 08:31:41;;;;;;;11.90;10.80;;;;;;;-1.44;58.16;99379.06;105494;1280;22490;-75
2022/03/10 08:34:10;;;;;;;10.60;9.60;;;;;;;-1.48;58.23;99362.02;105737;1279;22772;-76
2022/03/10 08:36:47;;;;;;;11.80;10.70;;;;;;;-1.34;57.88;99376.66;105668;1280;23026;-76
2022/03/10 08:39:17;;;;;;;13.90;10.80;;;;;;;-1.28;58.19;99376.74;105657;1279;25259;-76
2022/03/10 08:41:47;;;;;;;10.90;9.90;;;;;;;-1.20;58.57;99374.71;105618;1280;22597;-76
2022/03/10 08:44:19;;;;;;;11.70;10.60;;;;;;;-1.12;58.22;99379.77;105741;1279;22848;-77
2022/03/10 08:46:52;;;;;;;12.00;10.90;;;;;;;-1.07;58.02;99376.68;105771;1279;25255;-77
2022/03/10 08:49:21;;;;;;;16.80;15.00;;;;;;;-1.16;58.04;99354.45;105601;1280;22644;-77
2022/03/10 08:51:52;;;;;;;13.90;12.60;;;;;;;-0.97;57.92;99383.55;105818;1279;22545;-77
2022/03/10 08:54:24;;;;;;;12.80;11.60;;;;;;;-0.88;58.18;99383.23;105222;1280;27742;-78
2022/03/10 08:56:52;;;;;;;11.30;10.10;;;;;;;-0.83;57.96;99385.33;106216;1277;22486;-75
2022/03/10 08:59:24;;;;;;;12.30;11.20;;;;;;;-0.85;57.64;99377.85;105800;1279;22716;-77
2022/03/10 09:01:56;;;;;;;15.10;13.20;;;;;;;-0.74;58.11;99385.62;105831;1280;22624;-75
2022/03/10 09:04:26;;;;;;;15.10;13.50;;;;;;;-0.63;58.23;99390.56;105828;1280;25389;-76
2022/03/10 09:06:54;;;;;;;15.80;13.90;;;;;;;-0.56;57.63;99395.96;106256;1280;23948;-79
2022/03/10 09:09:37;;;;;;;12.70;11.50;;;;;;;-0.50;56.78;99395.58;105801;1280;22677;-77
2022/03/10 09:12:12;;;;;;;16.10;11.90;;;;;;;-0.40;57.77;99397.20;106077;1280;24249;-77
2022/03/10 09:14:43;;;;;;;12.10;10.80;;;;;;;-0.32;56.56;99398.01;106125;1280;22620;-77
2022/03/10 09:17:17;;;;;;;13.50;11.80;;;;;;;-0.32;56.51;99396.95;106117;1280;23223;-76
2022/03/10 09:20:15;;;;;;;13.90;12.10;;;;;;;-0.43;56.16;99383.91;106116;1280;24287;-76
2022/03/10 09:22:46;;;;;;;11.70;10.00;;;;;;;-0.32;56.01;99396.34;106045;1280;25433;-77
2022/03/10 09:25:15;;;;;;;11.80;10.60;;;;;;;-0.32;55.32;99394.66;106135;1280;22914;-77
2022/03/10 09:27:46;;;;;;;17.50;10.80;;;;;;;-0.32;54.92;99401.84;106026;1280;25668;-77
2022/03/10 09:30:14;;;;;;;14.00;12.60;;;;;;;-0.28;55.23;99398.92;105833;1280;24328;-78
2022/03/10 09:32:43;;;;;;;13.00;11.70;;;;;;;-0.26;54.55;99402.66;106019;1280;25413;-78
2022/03/10 09:35:20;;;;;;;14.00;12.10;;;;;;;-0.27;54.59;99405.79;105630;1280;25058;-78
2022/03/10 09:37:50;;;;;;;14.50;11.40;;;;;;;-0.32;53.89;99396.30;105515;1280;25446;-77
2022/03/10 09:40:19;;;;;;;17.10;13.20;;;;;;;-0.24;53.76;99411.77;106004;1280;24395;-77
2022/03/10 09:42:49;;;;;;;15.70;14.20;;;;;;;-0.26;53.75;99405.88;106156;1280;24397;-79
2022/03/10 09:45:20;;;;;;;12.40;10.40;;;;;;;-0.26;53.67;99406.41;106070;1280;25574;-78
2022/03/10 09:47:48;;;;;;;10.90;9.90;;;;;;;-0.23;54.27;99405.86;106146;1280;25380;-78
2022/03/10 09:50:20;;;;;;;11.90;10.40;;;;;;;-0.17;54.24;99406.98;105988;1280;25430;-76
2022/03/10 09:52:48;;;;;;;10.20;9.20;;;;;;;-0.08;52.92;99404.42;105923;1280;23493;-78
2022/03/10 09:55:18;;;;;;;14.80;12.60;;;;;;;-0.03;53.09;99407.13;106140;1280;22559;-78
2022/03/10 09:57:48;;;;;;;12.30;10.80;;;;;;;0.06;53.52;99405.79;106046;1280;24360;-77
2022/03/10 10:00:17;;;;;;;13.90;12.70;;;;;;;0.16;53.19;99404.80;105878;1280;25411;-76
2022/03/10 10:02:46;;;;;;;16.20;13.00;;;;;;;0.20;53.01;99400.17;105502;1280;25463;-77
2022/03/10 10:05:34;;;;;;;13.00;11.00;;;;;;;0.25;53.09;99406.48;105528;1280;23979;-77
2022/03/10 10:08:14;;;;;;;12.10;10.90;;;;;;;0.23;51.80;99404.97;106131;1280;23388;-78
2022/03/10 10:10:48;;;;;;;11.30;10.30;;;;;;;0.19;53.03;99414.39;106034;1280;22609;-77
2022/03/10 10:13:39;;;;;;;15.30;10.60;;;;;;;0.23;52.81;99419.68;105817;1280;22713;-77
2022/03/10 10:16:13;;;;;;;11.90;10.70;;;;;;;0.27;52.33;99419.10;105917;1280;25546;-76
2022/03/10 10:18:42;;;;;;;12.00;10.80;;;;;;;0.28;52.51;99425.10;105760;1280;22767;-77
2022/03/10 10:21:20;;;;;;;12.00;11.00;;;;;;;0.33;52.14;99426.39;105970;1280;22655;-77
2022/03/10 10:23:51;;;;;;;17.70;16.30;;;;;;;0.37;52.08;99428.42;106005;1280;23549;-76
2022/03/10 10:26:26;;;;;;;10.80;9.80;;;;;;;0.51;52.78;99430.30;106003;1280;22564;-78
2022/03/10 10:28:54;;;;;;;11.50;10.40;;;;;;;0.70;52.98;99425.29;105940;1280;22545;-76
2022/03/10 10:31:29;;;;;;;18.00;16.30;;;;;;;0.88;52.61;99426.34;106067;1280;22547;-77
2022/03/10 10:34:01;;;;;;;13.00;11.70;;;;;;;0.98;51.66;99433.25;106036;1280;22661;-76
2022/03/10 10:36:32;;;;;;;11.70;10.50;;;;;;;0.96;51.50;99438.58;106039;1280;26517;-76
2022/03/10 10:39:09;;;;;;;11.80;10.70;;;;;;;0.96;51.26;99432.38;105828;1279;25457;-77
2022/03/10 10:41:42;;;;;;;12.70;11.60;;;;;;;0.88;51.28;99427.20;105995;1280;22699;-78
2022/03/10 10:44:25;;;;;;;13.40;9.50;;;;;;;0.92;51.19;99429.21;106166;1280;22562;-80
2022/03/10 10:47:00;;;;;;;10.80;9.80;;;;;;;0.97;50.95;99431.27;106065;1280;22696;-76
2022/03/10 10:49:35;;;;;;;11.00;10.10;;;;;;;0.95;51.05;99424.73;106087;1280;25905;-78
2022/03/10 10:52:09;;;;;;;12.80;11.60;;;;;;;1.05;51.53;99423.79;106097;1280;24193;-75
2022/03/10 10:54:37;;;;;;;14.10;10.10;;;;;;;1.20;51.09;99426.16;105955;1280;22560;-76
2022/03/10 10:57:06;;;;;;;11.40;9.10;;;;;;;1.33;50.09;99425.45;106018;1280;22754;-77
2022/03/10 10:59:44;;;;;;;12.90;10.70;;;;;;;1.33;49.43;99424.25;106102;1280;22854;-77
2022/03/10 11:02:17;;;;;;;20.60;12.00;;;;;;;1.37;49.68;99426.54;105836;1280;22904;-77
2022/03/10 11:04:48;;;;;;;18.30;11.00;;;;;;;1.46;49.75;99430.36;105931;1280;22697;-77
2022/03/10 11:07:20;;;;;;;12.10;10.50;;;;;;;1.50;48.44;99432.69;106040;1280;22698;-77
2022/03/10 11:09:49;;;;;;;10.60;8.40;;;;;;;1.46;48.36;99435.42;106114;1280;24333;-75
2022/03/10 11:12:18;;;;;;;10.30;9.30;;;;;;;1.47;48.74;99435.14;105671;1280;22548;-76
2022/03/10 11:14:48;;;;;;;10.20;9.30;;;;;;;1.50;49.03;99431.70;105890;1279;25746;-76
2022/03/10 11:17:17;;;;;;;10.90;9.30;;;;;;;1.64;49.73;99433.31;105997;1279;22729;-77
2022/03/10 11:19:47;;;;;;;12.50;11.10;;;;;;;1.75;48.43;99430.86;105991;1280;22769;-76
2022/03/10 11:22:40;;;;;;;11.30;10.20;;;;;;;1.84;48.65;99431.56;106132;1280;23455;-78
2022/03/10 11:25:33;;;;;;;11.60;10.20;;;;;;;1.88;48.69;99438.19;105987;1280;24243;-77
2022/03/10 11:28:17;;;;;;;10.40;9.50;;;;;;;1.98;48.56;99443.22;106102;1280;22591;-77
2022/03/10 11:30:54;;;;;;;12.30;11.20;;;;;;;2.05;48.53;99444.41;105789;1280;22699;-78
2022/03/10 11:33:30;;;;;;;13.50;12.20;;;;;;;2.14;48.55;99446.85;106126;1280;22630;-78